KCGI

Cape Girardeau Regional Airport

Cape Girardeau, Missouri, USA
METAR KCGI 162153Z AUTO 00000KT 10SM FEW090 34/22 A2990 RMK AO2 SLP120 T03390217
Observed Flight Rules
Jul-16 @ 21:53 UTC (23 minutes ago) Visual Flight Rules
Visibility Clouds
10 miles
  • Few at 9,000' AGL
Temperatures Readings
Current 34°C / 93°F
Dewpoint 22°C / 72°F
Humidity 49%
Altimeter 29.9" Hg
Pressure 1012 hPa
Elevation 102
METAR KCGI 162153Z AUTO 00000KT 10SM FEW090 34/22 A2990 RMK AO2 SLP120 T03390217
Observed Flight Rules
Jul-16 @ 21:53 UTC
(23 minutes ago)
VFR
Clouds
  • Few at 9,000' AGL
Temperature Dewpoint
34°C / 93°F 22°C / 72°F
Humidity Altimeter Pressure
49% 29.9" Hg 1012 hPa